createdAt,value
2022-11-02T00:00:34.959Z,1.20
2022-11-02T00:02:36.554Z,0.95
2022-11-02T00:04:38.144Z,0.82
2022-11-02T00:06:41.296Z,1.02
2022-11-02T00:08:42.780Z,1.23
2022-11-02T00:10:44.427Z,1.60
2022-11-02T00:12:46.384Z,2.58
2022-11-02T00:14:48.044Z,0.93
2022-11-02T00:16:49.733Z,2.35
2022-11-02T00:18:53.473Z,1.10
2022-11-02T00:20:55.431Z,1.30
2022-11-02T00:22:58.387Z,1.10
2022-11-02T00:25:04.201Z,0.93
2022-11-02T00:27:05.782Z,1.20
2022-11-02T00:29:08.335Z,1.33
2022-11-02T00:31:09.785Z,1.30
2022-11-02T00:33:11.906Z,1.45
2022-11-02T00:35:13.401Z,1.67
2022-11-02T00:37:15.557Z,1.60
2022-11-02T00:39:16.931Z,1.38
2022-11-02T00:41:19.766Z,1.52
2022-11-02T00:43:21.167Z,1.30
2022-11-02T00:45:23.076Z,1.73
2022-11-02T00:47:24.565Z,1.20
2022-11-02T00:49:25.992Z,2.30
2022-11-02T00:51:27.392Z,1.13
2022-11-02T00:53:28.814Z,1.95
2022-11-02T00:55:30.263Z,1.40
2022-11-02T00:57:31.656Z,2.22
2022-11-02T00:59:33.299Z,3.08
2022-11-02T01:01:34.815Z,1.33
2022-11-02T01:03:36.350Z,2.55
2022-11-02T01:05:37.935Z,1.67
2022-11-02T01:07:39.476Z,1.40
2022-11-02T01:09:40.857Z,1.25
2022-11-02T01:11:43.196Z,1.80
2022-11-02T01:13:44.978Z,2.35
2022-11-02T01:15:46.392Z,2.67
2022-11-02T01:17:47.812Z,2.25
2022-11-02T01:19:50.200Z,2.15
2022-11-02T01:21:51.732Z,1.40
2022-11-02T01:23:53.180Z,2.83
2022-11-02T01:25:54.564Z,2.67
2022-11-02T01:27:56.139Z,2.15
2022-11-02T01:29:57.801Z,2.13
2022-11-02T01:31:59.400Z,2.15
2022-11-02T01:34:00.813Z,1.33
2022-11-02T01:36:03.040Z,2.35
2022-11-02T01:38:04.839Z,2.08
2022-11-02T01:40:06.573Z,1.67
2022-11-02T01:42:17.631Z,1.88
2022-11-02T01:44:24.964Z,1.92
2022-11-02T01:46:32.165Z,2.10
2022-11-02T01:48:37.683Z,2.10
2022-11-02T01:50:39.496Z,1.50
2022-11-02T01:52:41.517Z,2.33
2022-11-02T01:54:51.071Z,2.13
2022-11-02T01:56:55.336Z,2.55
2022-11-02T02:00:58.212Z,1.75
2022-11-02T02:03:06.316Z,1.92
2022-11-02T02:05:09.446Z,1.88
2022-11-02T02:07:12.317Z,1.73
2022-11-02T02:09:14.860Z,1.55
2022-11-02T02:11:28.426Z,1.40
2022-11-02T02:13:30.051Z,1.70
2022-11-02T02:15:39.129Z,4.95
2022-11-02T02:17:43.241Z,2.45
2022-11-02T02:19:50.154Z,2.42
2022-11-02T02:22:09.978Z,1.63
2022-11-02T02:24:22.529Z,2.13
2022-11-02T02:26:47.743Z,2.13
2022-11-02T02:29:22.877Z,2.00
2022-11-02T02:31:33.079Z,2.95
2022-11-02T02:33:40.010Z,3.30
2022-11-02T02:35:45.668Z,2.85
2022-11-02T02:38:00.920Z,2.17
2022-11-02T02:40:07.962Z,1.58
2022-11-02T02:42:14.313Z,1.65
2022-11-02T02:44:21.096Z,1.98
2022-11-02T02:46:40.455Z,1.92
2022-11-02T02:48:47.708Z,4.20
2022-11-02T02:50:52.470Z,2.80
2022-11-02T02:52:56.765Z,2.20
2022-11-02T02:55:00.249Z,1.83
2022-11-02T02:57:06.755Z,1.63
2022-11-02T02:59:13.129Z,2.97
2022-11-02T03:01:15.751Z,2.50
2022-11-02T03:03:18.531Z,1.52
2022-11-02T03:05:24.102Z,1.45
2022-11-02T03:07:31.026Z,2.60
2022-11-02T03:09:45.409Z,2.28
2022-11-02T03:11:51.517Z,2.55
2022-11-02T03:14:04.929Z,1.98
2022-11-02T03:16:11.807Z,2.55
2022-11-02T03:18:25.244Z,1.70
2022-11-02T03:20:33.943Z,1.75
2022-11-02T03:22:44.114Z,2.60
2022-11-02T03:25:00.458Z,1.98
2022-11-02T03:27:15.774Z,2.20
2022-11-02T03:29:24.172Z,2.08
2022-11-02T03:31:31.450Z,1.77
2022-11-02T03:33:35.748Z,1.55
2022-11-02T03:35:41.308Z,1.63
2022-11-02T03:37:46.832Z,2.53
2022-11-02T03:39:50.196Z,1.50
2022-11-02T03:41:52.895Z,1.77
2022-11-02T03:43:58.755Z,2.17
2022-11-02T03:46:02.142Z,1.95
2022-11-02T03:48:06.773Z,1.60
2022-11-02T03:50:09.319Z,2.92
2022-11-02T03:52:14.818Z,1.83
2022-11-02T03:54:27.284Z,5.03
2022-11-02T03:56:34.092Z,1.70
2022-11-02T03:58:35.848Z,2.05
2022-11-02T04:00:38.405Z,2.40
2022-11-02T04:02:41.222Z,2.97
2022-11-02T04:04:49.916Z,1.50
2022-11-02T04:06:51.799Z,2.53
2022-11-02T04:08:53.321Z,2.70
2022-11-02T04:11:13.595Z,2.75
2022-11-02T04:13:33.564Z,1.55
2022-11-02T04:15:34.981Z,1.52
2022-11-02T04:17:55.075Z,1.80
2022-11-02T04:19:56.980Z,1.50
2022-11-02T04:22:17.060Z,2.20
2022-11-02T04:24:36.908Z,1.38
2022-11-02T04:26:38.563Z,2.47
2022-11-02T04:28:40.183Z,1.30
2022-11-02T04:30:41.624Z,1.23
2022-11-02T04:33:02.717Z,2.05
2022-11-02T04:35:04.390Z,1.75
2022-11-02T04:37:25.858Z,1.95
2022-11-02T04:39:27.388Z,1.40
2022-11-02T04:41:44.380Z,1.63
2022-11-02T04:43:45.809Z,2.08
2022-11-02T04:45:47.417Z,2.28
2022-11-02T04:47:49.098Z,1.25
2022-11-02T04:49:50.561Z,1.38
2022-11-02T04:51:51.965Z,1.52
2022-11-02T04:53:54.161Z,1.50
2022-11-02T04:55:55.559Z,3.15
2022-11-02T04:57:57.253Z,1.27
2022-11-02T04:59:58.729Z,2.30
2022-11-02T05:02:00.249Z,1.67
2022-11-02T05:04:01.791Z,3.13
2022-11-02T05:06:03.469Z,2.30
2022-11-02T05:08:05.307Z,1.83
2022-11-02T05:10:07.177Z,2.75
2022-11-02T05:12:08.589Z,1.48
2022-11-02T05:14:10.276Z,1.88
2022-11-02T05:16:13.005Z,2.60
2022-11-02T05:18:18.629Z,1.15
2022-11-02T05:20:20.596Z,1.38
2022-11-02T05:22:22.468Z,1.40
2022-11-02T05:24:23.856Z,1.55
2022-11-02T05:26:25.348Z,1.58
2022-11-02T05:28:27.540Z,1.77
2022-11-02T05:30:30.953Z,2.13
2022-11-02T05:32:42.662Z,1.58
2022-11-02T05:34:54.061Z,2.35
2022-11-02T05:37:08.303Z,1.75
2022-11-02T05:39:18.724Z,1.30
2022-11-02T05:41:30.125Z,0.95
2022-11-02T05:43:42.132Z,1.40
2022-11-02T05:46:06.185Z,1.70
2022-11-02T05:48:16.981Z,1.27
2022-11-02T05:50:25.552Z,1.30
2022-11-02T05:52:33.902Z,1.73
2022-11-02T05:54:44.521Z,1.38
2022-11-02T05:56:55.366Z,1.83
2022-11-02T05:59:05.870Z,1.38
2022-11-02T06:01:10.508Z,1.60
2022-11-02T06:03:12.029Z,1.03
2022-11-02T06:05:13.942Z,1.25
2022-11-02T06:07:15.481Z,1.40
2022-11-02T06:09:16.938Z,1.25
2022-11-02T06:11:18.390Z,2.83
2022-11-02T06:13:20.052Z,1.42
2022-11-02T06:15:21.629Z,1.40
2022-11-02T06:17:23.062Z,1.40
2022-11-02T06:19:24.489Z,1.15
2022-11-02T06:21:26.005Z,1.10
2022-11-02T06:23:27.973Z,1.20
2022-11-02T06:25:29.403Z,1.15
2022-11-02T06:27:30.839Z,1.35
2022-11-02T06:29:32.351Z,1.33
2022-11-02T06:31:34.081Z,1.75
2022-11-02T06:33:35.521Z,1.10
2022-11-02T06:35:36.983Z,1.33
2022-11-02T06:37:38.767Z,2.08
2022-11-02T06:39:40.577Z,1.20
2022-11-02T06:41:42.033Z,2.35
2022-11-02T06:43:43.411Z,3.78
2022-11-02T06:45:44.927Z,1.48
2022-11-02T06:47:48.420Z,0.93
2022-11-02T06:49:49.887Z,0.98
2022-11-02T06:51:51.786Z,1.02
2022-11-02T06:53:53.276Z,2.47
2022-11-02T06:55:55.380Z,1.50
2022-11-02T06:57:56.899Z,1.55
2022-11-02T07:00:04.180Z,1.30
2022-11-02T07:02:06.322Z,2.13
2022-11-02T07:04:07.873Z,1.38
2022-11-02T07:06:13.898Z,1.55
2022-11-02T07:08:15.831Z,1.55
2022-11-02T07:10:17.365Z,1.70
2022-11-02T07:12:22.882Z,2.08
2022-11-02T07:14:25.010Z,1.63
2022-11-02T07:16:26.542Z,1.50
2022-11-02T07:18:28.046Z,2.17
2022-11-02T07:20:30.550Z,2.35
2022-11-02T07:22:32.379Z,2.67
2022-11-02T07:24:34.215Z,3.28
2022-11-02T07:26:35.927Z,3.75
2022-11-02T07:28:38.359Z,2.83
2022-11-02T07:30:39.852Z,2.55
2022-11-02T07:32:42.396Z,3.42
2022-11-02T07:34:43.905Z,2.83
2022-11-02T07:36:46.119Z,4.55
2022-11-02T07:38:47.595Z,3.38
2022-11-02T07:40:50.769Z,6.57
2022-11-02T07:42:54.004Z,5.78
2022-11-02T07:44:55.723Z,3.13
2022-11-02T07:46:57.217Z,4.72
2022-11-02T07:48:58.728Z,2.53
2022-11-02T07:51:00.223Z,3.67
2022-11-02T07:53:01.903Z,3.92
2022-11-02T07:55:03.628Z,2.97
2022-11-02T07:57:05.127Z,2.50
2022-11-02T07:59:06.565Z,3.88
2022-11-02T08:01:08.422Z,6.35
2022-11-02T08:03:11.598Z,2.42
2022-11-02T08:05:13.524Z,2.60
2022-11-02T08:07:15.054Z,4.05
2022-11-02T08:09:16.556Z,5.13
2022-11-02T08:11:43.032Z,4.40
2022-11-02T08:13:44.455Z,2.47
2022-11-02T08:15:53.208Z,2.67
2022-11-02T08:18:01.758Z,3.05
2022-11-02T08:20:03.547Z,2.72
2022-11-02T08:22:05.497Z,2.75
2022-11-02T08:24:07.120Z,2.95
2022-11-02T08:26:08.472Z,2.75
2022-11-02T08:28:14.853Z,2.60
2022-11-02T08:30:16.684Z,2.67
2022-11-02T08:32:18.134Z,2.83
2022-11-02T08:34:19.618Z,3.88
2022-11-02T08:36:22.472Z,3.65
2022-11-02T08:38:30.812Z,3.10
2022-11-02T08:40:42.642Z,3.22
2022-11-02T08:42:49.763Z,2.75
2022-11-02T08:44:58.803Z,2.50
2022-11-02T08:47:10.621Z,2.95
2022-11-02T08:49:20.739Z,3.22
2022-11-02T08:51:25.106Z,2.92
2022-11-02T08:53:31.868Z,2.55
2022-11-02T08:55:39.504Z,3.13
2022-11-02T08:57:57.282Z,2.65
2022-11-02T09:00:05.381Z,3.63
2022-11-02T09:02:11.954Z,4.57
2022-11-02T09:04:18.350Z,2.63
2022-11-02T09:06:21.811Z,2.88
2022-11-02T09:10:27.130Z,2.78
2022-11-02T09:12:28.682Z,4.35
2022-11-02T09:14:30.218Z,2.38
2022-11-02T09:16:31.784Z,3.05
2022-11-02T09:18:33.272Z,2.25
2022-11-02T09:20:34.929Z,4.38
2022-11-02T09:22:36.371Z,2.65
2022-11-02T09:24:37.821Z,2.47
2022-11-02T09:26:39.251Z,1.85
2022-11-02T09:28:41.009Z,2.08
2022-11-02T09:30:42.823Z,2.22
2022-11-02T09:32:44.209Z,2.28
2022-11-02T09:34:47.408Z,2.17
2022-11-02T09:36:48.934Z,3.53
2022-11-02T09:38:50.411Z,3.50
2022-11-02T09:41:00.961Z,1.95
2022-11-02T09:43:08.539Z,2.25
2022-11-02T09:45:15.504Z,3.05
2022-11-02T09:48:02.841Z,3.45
2022-11-02T09:49:39.890Z,2.90
2022-11-02T09:51:49.205Z,2.88
2022-11-02T09:54:03.104Z,2.95
2022-11-02T09:56:05.604Z,3.70
2022-11-02T09:58:17.146Z,3.05
2022-11-02T10:00:18.699Z,2.92
2022-11-02T10:02:28.688Z,3.75
2022-11-02T10:04:32.916Z,3.78
2022-11-02T10:08:48.472Z,3.60
2022-11-02T10:10:56.443Z,3.15
2022-11-02T10:12:57.935Z,3.67
2022-11-02T10:15:02.411Z,3.22
2022-11-02T10:17:22.619Z,3.17
2022-11-02T10:19:26.434Z,3.08
2022-11-02T10:21:36.872Z,2.85
2022-11-02T10:23:40.704Z,3.15
2022-11-02T10:25:42.425Z,3.17
2022-11-02T10:27:47.662Z,2.70
2022-11-02T10:29:59.365Z,3.85
2022-11-02T10:32:01.654Z,2.92
2022-11-02T10:34:14.028Z,4.88
2022-11-02T10:36:19.553Z,3.05
2022-11-02T10:38:39.516Z,4.47
2022-11-02T10:41:02.701Z,3.70
2022-11-02T10:43:21.833Z,5.05
2022-11-02T10:45:41.240Z,3.97
2022-11-02T10:47:45.429Z,4.18
2022-11-02T10:51:49.508Z,3.35
2022-11-02T10:53:51.895Z,3.45
2022-11-02T10:55:58.340Z,3.15
2022-11-02T10:58:00.934Z,3.05
2022-11-02T11:00:22.858Z,3.30
2022-11-02T11:02:24.327Z,3.65
2022-11-02T11:04:26.749Z,3.67
2022-11-02T11:06:29.686Z,4.18
2022-11-02T11:08:35.616Z,3.58
2022-11-02T11:10:38.259Z,3.75
2022-11-02T11:12:43.005Z,3.50
2022-11-02T11:19:48.100Z,3.85
2022-11-02T11:21:52.841Z,3.30
2022-11-02T11:24:11.545Z,4.47
2022-11-02T11:26:26.770Z,4.30
2022-11-02T11:28:29.822Z,5.55
2022-11-02T11:31:00.805Z,4.18
2022-11-02T11:32:54.083Z,3.67
2022-11-02T11:34:55.534Z,4.68
2022-11-02T11:37:08.880Z,3.13
2022-11-02T11:39:31.204Z,4.07
2022-11-02T11:41:41.332Z,5.32
2022-11-02T11:43:52.596Z,3.72
2022-11-02T11:46:06.528Z,4.00
2022-11-02T11:48:11.698Z,3.53
2022-11-02T11:50:25.411Z,3.78
2022-11-02T11:52:32.981Z,3.90
2022-11-02T11:54:36.400Z,4.13
2022-11-02T11:56:39.149Z,3.55
2022-11-02T11:58:50.939Z,4.07
2022-11-02T12:01:11.839Z,3.20
2022-11-02T12:03:15.241Z,3.63
2022-11-02T12:05:22.468Z,4.13
2022-11-02T12:07:43.635Z,3.97
2022-11-02T12:09:45.898Z,3.25
2022-11-02T12:11:51.241Z,3.42
2022-11-02T12:13:59.587Z,5.03
2022-11-02T12:16:04.158Z,3.50
2022-11-02T12:18:24.240Z,5.53
2022-11-02T12:20:25.660Z,2.78
2022-11-02T12:22:30.162Z,3.30
2022-11-02T12:24:39.024Z,3.88
2022-11-02T12:26:46.630Z,4.20
2022-11-02T12:29:11.755Z,4.75
2022-11-02T12:31:33.094Z,4.25
2022-11-02T12:33:40.484Z,3.85
2022-11-02T12:35:41.923Z,5.47
2022-11-02T12:37:58.611Z,3.28
2022-11-02T12:40:06.225Z,3.47
2022-11-02T12:42:15.646Z,4.05
2022-11-02T12:44:35.049Z,3.72
2022-11-02T12:46:48.469Z,3.40
2022-11-02T12:48:50.418Z,4.75
2022-11-02T12:50:55.581Z,4.40
2022-11-02T12:53:03.395Z,3.90
2022-11-02T12:55:07.036Z,4.20
2022-11-02T12:57:12.411Z,3.65
2022-11-02T12:59:21.472Z,5.03
2022-11-02T13:01:37.345Z,3.78
2022-11-02T13:03:43.113Z,3.90
2022-11-02T13:05:50.512Z,3.72
2022-11-02T13:08:10.336Z,3.42
2022-11-02T13:10:15.048Z,3.47
2022-11-02T13:12:18.813Z,3.90
2022-11-02T13:14:20.970Z,4.13
2022-11-02T13:16:26.601Z,4.55
2022-11-02T13:18:32.923Z,4.57
2022-11-02T13:20:40.034Z,3.78
2022-11-02T13:22:43.132Z,4.40
2022-11-02T13:24:47.809Z,3.93
2022-11-02T13:26:57.261Z,3.65
2022-11-02T13:29:02.956Z,3.63
2022-11-02T13:31:11.749Z,4.07
2022-11-02T13:33:19.759Z,3.40
2022-11-02T13:35:30.064Z,3.63
2022-11-02T13:37:34.798Z,6.22
2022-11-02T13:39:38.592Z,3.30
2022-11-02T13:42:01.641Z,4.28
2022-11-02T13:44:06.144Z,4.20
2022-11-02T13:46:14.038Z,3.20
2022-11-02T13:48:15.459Z,4.55
2022-11-02T13:50:18.699Z,2.90
2022-11-02T13:52:40.678Z,3.58
2022-11-02T13:54:46.622Z,3.75
2022-11-02T13:56:53.504Z,4.55
2022-11-02T13:59:00.724Z,3.00
2022-11-02T14:01:03.699Z,3.17
2022-11-02T14:03:15.583Z,3.58
2022-11-02T14:05:31.321Z,5.57
2022-11-02T14:07:34.729Z,3.28
2022-11-02T14:09:38.915Z,4.68
2022-11-02T14:11:40.289Z,4.97
2022-11-02T14:13:54.092Z,4.75
2022-11-02T14:15:55.641Z,4.72
2022-11-02T14:18:02.379Z,4.50
2022-11-02T14:20:24.075Z,3.58
2022-11-02T14:22:25.903Z,4.57
2022-11-02T14:24:33.601Z,3.38
2022-11-02T14:26:53.604Z,3.40
2022-11-02T14:28:55.072Z,4.13
2022-11-02T14:31:16.951Z,3.22
2022-11-02T14:33:24.583Z,3.97
2022-11-02T14:35:49.363Z,3.85
2022-11-02T14:38:04.267Z,3.75
2022-11-02T14:40:24.921Z,3.67
2022-11-02T14:42:38.629Z,3.42
2022-11-02T14:44:40.510Z,3.50
2022-11-02T14:46:55.152Z,4.28
2022-11-02T14:49:07.005Z,5.20
2022-11-02T14:51:25.817Z,4.55
2022-11-02T14:53:41.588Z,4.57
2022-11-02T14:56:00.578Z,6.03
2022-11-02T14:58:20.914Z,5.70
2022-11-02T15:00:55.148Z,4.28
2022-11-02T15:03:02.814Z,4.28
2022-11-02T15:05:17.890Z,3.85
2022-11-02T15:07:33.223Z,4.25
2022-11-02T15:10:02.311Z,4.85
2022-11-02T15:12:28.444Z,5.78
2022-11-02T15:14:39.609Z,4.55
2022-11-02T15:16:50.323Z,5.05
2022-11-02T15:18:57.506Z,5.20
2022-11-02T15:21:26.325Z,4.68
2022-11-02T15:23:31.806Z,7.72
2022-11-02T15:25:36.477Z,5.65
2022-11-02T15:27:39.234Z,5.10
2022-11-02T15:29:44.244Z,4.45
2022-11-02T15:31:49.675Z,5.53
2022-11-02T15:33:53.696Z,5.43
2022-11-02T15:35:55.651Z,5.95
2022-11-02T15:38:19.313Z,5.55
2022-11-02T15:40:26.870Z,8.65
2022-11-02T15:42:28.551Z,5.32
2022-11-02T15:44:45.259Z,4.97
2022-11-02T15:46:46.817Z,4.80
2022-11-02T15:48:57.671Z,4.82
2022-11-02T15:50:59.109Z,4.70
2022-11-02T15:53:35.341Z,3.58
2022-11-02T15:55:48.049Z,4.10
2022-11-02T15:58:08.749Z,4.55
2022-11-02T16:00:15.979Z,5.13
2022-11-02T16:02:22.361Z,4.47
2022-11-02T16:04:24.280Z,5.00
2022-11-02T16:06:30.447Z,5.45
2022-11-02T16:08:33.613Z,4.90
2022-11-02T16:10:35.159Z,4.90
2022-11-02T16:12:36.589Z,4.22
2022-11-02T16:14:38.920Z,4.10
2022-11-02T16:16:47.687Z,4.95
2022-11-02T16:18:57.383Z,3.60
2022-11-02T16:21:01.944Z,3.08
2022-11-02T16:23:04.317Z,4.18
2022-11-02T16:25:15.603Z,3.53
2022-11-02T16:27:17.221Z,3.83
2022-11-02T16:29:23.221Z,4.90
2022-11-02T16:31:30.923Z,5.20
2022-11-02T16:33:42.137Z,4.10
2022-11-02T16:35:43.705Z,3.63
2022-11-02T16:37:45.685Z,4.15
2022-11-02T16:39:47.532Z,4.47
2022-11-02T16:41:49.992Z,5.30
2022-11-02T16:43:51.523Z,4.30
2022-11-02T16:45:58.916Z,5.65
2022-11-02T16:48:00.316Z,3.92
2022-11-02T16:50:02.119Z,5.05
2022-11-02T16:52:17.250Z,4.65
2022-11-02T16:54:25.721Z,5.93
2022-11-02T16:56:30.971Z,5.85
2022-11-02T16:58:32.889Z,4.65
2022-11-02T17:00:34.416Z,7.05
2022-11-02T17:02:39.774Z,4.28
2022-11-02T17:04:42.702Z,3.92
2022-11-02T17:06:45.745Z,5.07
2022-11-02T17:08:51.937Z,4.78
2022-11-02T17:10:55.213Z,5.13
2022-11-02T17:12:57.252Z,5.53
2022-11-02T17:14:59.177Z,5.28
2022-11-02T17:17:08.075Z,4.68
2022-11-02T17:19:29.461Z,5.50
2022-11-02T17:21:31.170Z,4.47
2022-11-02T17:23:34.153Z,4.47
2022-11-02T17:25:36.386Z,5.43
2022-11-02T17:27:42.272Z,4.70
2022-11-02T17:29:44.449Z,5.63
2022-11-02T17:31:45.948Z,5.47
2022-11-02T17:33:47.890Z,5.35
2022-11-02T17:35:50.118Z,5.60
2022-11-02T17:37:53.357Z,5.68
2022-11-02T17:39:55.562Z,6.30
2022-11-02T17:42:16.548Z,5.78
2022-11-02T17:44:18.040Z,7.03
2022-11-02T17:46:19.651Z,5.30
2022-11-02T17:48:21.358Z,6.75
2022-11-02T17:50:23.943Z,5.93
2022-11-02T17:52:25.374Z,5.85
2022-11-02T17:54:31.552Z,4.93
2022-11-02T17:56:41.621Z,4.57
2022-11-02T17:58:55.547Z,5.97
2022-11-02T18:01:00.910Z,6.15
2022-11-02T18:03:09.865Z,6.82
2022-11-02T18:05:22.344Z,5.57
2022-11-02T18:07:25.771Z,5.55
2022-11-02T18:09:35.211Z,5.63
2022-11-02T18:11:43.621Z,6.60
2022-11-02T18:13:49.993Z,5.32
2022-11-02T18:15:57.034Z,5.20
2022-11-02T18:18:07.058Z,5.82
2022-11-02T18:20:17.093Z,5.45
2022-11-02T18:22:29.692Z,5.97
2022-11-02T18:24:41.018Z,5.05
2022-11-02T18:26:46.815Z,6.07
2022-11-02T18:28:48.537Z,5.40
2022-11-02T18:30:50.137Z,6.43
2022-11-02T18:32:51.712Z,7.45
2022-11-02T18:34:53.195Z,7.05
2022-11-02T18:36:54.708Z,6.72
2022-11-02T18:38:56.157Z,4.60
2022-11-02T18:41:02.412Z,6.88
2022-11-02T18:43:04.238Z,5.75
2022-11-02T18:45:06.312Z,5.78
2022-11-02T18:47:08.390Z,6.07
2022-11-02T18:49:10.056Z,5.53
2022-11-02T18:51:11.726Z,5.40
2022-11-02T18:53:13.145Z,5.18
2022-11-02T18:55:14.988Z,4.30
2022-11-02T18:57:16.418Z,6.53
2022-11-02T18:59:17.845Z,5.45
2022-11-02T19:01:20.216Z,5.70
2022-11-02T19:03:21.888Z,6.53
2022-11-02T19:05:43.578Z,7.13
2022-11-02T19:08:04.211Z,7.03
2022-11-02T19:10:06.033Z,5.75
2022-11-02T19:12:09.294Z,6.13
2022-11-02T19:14:10.876Z,4.93
2022-11-02T19:16:12.275Z,5.78
2022-11-02T19:18:13.929Z,7.00
2022-11-02T19:20:15.461Z,6.47
2022-11-02T19:22:20.066Z,5.35
2022-11-02T19:24:21.886Z,5.93
2022-11-02T19:28:30.198Z,7.03
2022-11-02T19:30:31.705Z,4.85
2022-11-02T19:32:33.159Z,7.40
2022-11-02T19:34:36.649Z,5.20
2022-11-02T19:36:38.664Z,5.75
2022-11-02T19:38:40.276Z,6.10
2022-11-02T19:40:41.665Z,8.20
2022-11-02T19:42:43.070Z,4.53
2022-11-02T19:44:44.569Z,6.13
2022-11-02T19:46:46.220Z,6.05
2022-11-02T19:48:48.231Z,6.65
2022-11-02T19:50:49.816Z,4.80
2022-11-02T19:52:51.251Z,6.15
2022-11-02T19:54:52.765Z,6.13
2022-11-02T19:56:54.204Z,5.30
2022-11-02T19:58:56.294Z,5.72
2022-11-02T20:01:06.305Z,6.25
2022-11-02T20:03:07.846Z,5.55
2022-11-02T20:05:11.238Z,4.57
2022-11-02T20:07:12.981Z,5.53
2022-11-02T20:09:15.863Z,5.63
2022-11-02T20:11:22.300Z,6.07
2022-11-02T20:13:24.788Z,5.13
2022-11-02T20:15:26.241Z,4.97
2022-11-02T20:17:38.177Z,5.20
2022-11-02T20:19:48.365Z,5.05
2022-11-02T20:21:50.097Z,5.50
2022-11-02T20:23:51.949Z,5.10
2022-11-02T20:25:53.332Z,5.75
2022-11-02T20:27:55.207Z,6.18
2022-11-02T20:29:57.176Z,5.50
2022-11-02T20:31:58.883Z,5.53
2022-11-02T20:34:00.525Z,5.97
2022-11-02T20:36:02.305Z,6.20
2022-11-02T20:38:04.031Z,5.45
2022-11-02T20:40:06.001Z,5.93
2022-11-02T20:42:09.241Z,5.22
2022-11-02T20:44:10.874Z,7.82
2022-11-02T20:48:37.557Z,5.88
2022-11-02T20:50:39.134Z,6.43
2022-11-02T20:52:40.658Z,6.00
2022-11-02T20:54:42.142Z,5.65
2022-11-02T20:56:43.617Z,6.03
2022-11-02T20:58:47.242Z,6.45
2022-11-02T21:00:57.997Z,6.10
2022-11-02T21:03:08.859Z,4.85
2022-11-02T21:05:19.307Z,4.82
2022-11-02T21:07:26.233Z,5.50
2022-11-02T21:09:32.270Z,6.35
2022-11-02T21:11:56.364Z,5.47
2022-11-02T21:14:01.702Z,5.50
2022-11-02T21:20:28.440Z,5.63
2022-11-02T21:22:37.567Z,6.18
2022-11-02T21:26:45.717Z,5.05
2022-11-02T21:28:51.834Z,5.53
2022-11-02T21:31:13.989Z,6.07
2022-11-02T21:33:16.105Z,5.18
2022-11-02T21:35:17.874Z,6.50
2022-11-02T21:37:23.068Z,6.68
2022-11-02T21:39:25.421Z,7.55
2022-11-02T21:41:29.335Z,6.05
2022-11-02T21:43:31.307Z,6.38
2022-11-02T21:45:37.591Z,7.13
2022-11-02T21:47:39.861Z,7.00
2022-11-02T21:49:43.151Z,6.22
2022-11-02T21:51:44.884Z,7.82
2022-11-02T21:53:46.969Z,4.65
2022-11-02T21:55:55.457Z,3.65
2022-11-02T21:57:57.193Z,2.67
2022-11-02T21:59:58.949Z,3.08
2022-11-02T22:02:00.475Z,1.50
2022-11-02T22:04:02.094Z,1.38
2022-11-02T22:06:03.503Z,1.20
2022-11-02T22:08:23.714Z,1.52
2022-11-02T22:10:25.154Z,2.60
2022-11-02T22:12:45.707Z,2.40
2022-11-02T22:14:47.362Z,2.40
2022-11-02T22:16:48.751Z,2.80
2022-11-02T22:18:51.242Z,3.05
2022-11-02T22:20:55.605Z,3.88
2022-11-02T22:22:57.042Z,3.70
2022-11-02T22:24:58.557Z,4.22
2022-11-02T22:26:59.971Z,3.50
2022-11-02T22:29:01.619Z,3.47
2022-11-02T22:31:07.460Z,4.47
2022-11-02T22:33:11.412Z,3.10
2022-11-02T22:35:12.812Z,3.65
2022-11-02T22:37:33.021Z,4.15
2022-11-02T22:39:34.534Z,4.47
2022-11-02T22:41:37.368Z,3.65
2022-11-02T22:43:39.025Z,4.10
2022-11-02T22:45:40.469Z,4.50
2022-11-02T22:47:42.024Z,3.70
2022-11-02T22:49:43.515Z,4.15
2022-11-02T22:51:46.356Z,4.93
2022-11-02T22:53:48.151Z,5.57
2022-11-02T22:56:16.127Z,3.38
2022-11-02T22:58:17.494Z,3.38
2022-11-02T23:00:19.218Z,3.78
2022-11-02T23:02:20.761Z,4.60
2022-11-02T23:04:22.269Z,5.20
2022-11-02T23:06:24.232Z,4.60
2022-11-02T23:10:49.301Z,6.60
2022-11-02T23:12:53.722Z,4.60
2022-11-02T23:14:55.149Z,4.15
2022-11-02T23:16:56.929Z,4.00
2022-11-02T23:19:25.138Z,3.33
2022-11-02T23:21:28.131Z,6.22
2022-11-02T23:23:48.637Z,4.03
2022-11-02T23:25:56.701Z,3.05
2022-11-02T23:28:16.956Z,3.63
2022-11-02T23:30:37.185Z,3.90
2022-11-02T23:32:38.694Z,4.50
2022-11-02T23:34:40.098Z,3.40
2022-11-02T23:36:41.565Z,3.10
2022-11-02T23:39:03.381Z,3.47
2022-11-02T23:41:04.893Z,3.42
2022-11-02T23:43:08.018Z,1.98
2022-11-02T23:45:10.244Z,3.60
2022-11-02T23:47:11.734Z,3.03
2022-11-02T23:49:15.608Z,2.60
2022-11-02T23:51:35.618Z,2.20
2022-11-02T23:53:55.842Z,2.97
2022-11-02T23:56:16.297Z,3.05
2022-11-02T23:58:17.744Z,1.83
